Time;durP1;ratioP1;P1;durP2;ratioP2;P2;SDS_P1;SDS_P2;PMS_P1;PMS_P2;Temp;Humidity;BMP_temperature;BMP_pressure;BME280_temperature;BME280_humidity;BME280_pressure;Samples;Min_cycle;Max_cycle;Signal;HPM_P1;HPM_P2
2023/04/09 00:01:53;;;;;;;7.22;3.08;;;;;;;;;;4981169;28;20053;-83
2023/04/09 00:04:21;;;;;;;8.65;3.20;;;;;;;;;;4970857;28;20046;-83
2023/04/09 00:06:47;;;;;;;6.28;3.20;;;;;;;;;;4965452;28;20173;-84
2023/04/09 00:09:13;;;;;;;4.43;2.63;;;;;;;;;;4979499;28;20515;-83
2023/04/09 00:11:39;;;;;;;10.05;4.38;;;;;;;;;;4967414;28;20027;-83
2023/04/09 00:14:05;;;;;;;6.43;2.83;;;;;;;;;;4971672;28;20502;-83
2023/04/09 00:16:31;;;;;;;7.70;3.72;;;;;;;;;;4969142;28;20529;-84
2023/04/09 00:18:57;;;;;;;9.82;3.92;;;;;;;;;;4969780;28;20034;-83
2023/04/09 00:21:23;;;;;;;9.50;3.03;;;;;;;;;;4987447;28;20042;-83
2023/04/09 00:23:49;;;;;;;7.80;3.75;;;;;;;;;;4967580;28;20785;-83
2023/04/09 00:26:15;;;;;;;7.97;3.28;;;;;;;;;;4981437;28;20026;-83
2023/04/09 00:28:41;;;;;;;7.63;3.55;;;;;;;;;;4969070;28;20041;-83
2023/04/09 00:31:08;;;;;;;9.63;3.72;;;;;;;;;;4993770;28;20081;-83
2023/04/09 00:33:35;;;;;;;10.57;3.75;;;;;;;;;;4975252;28;20037;-83
2023/04/09 00:36:01;;;;;;;7.22;3.08;;;;;;;;;;4984384;28;20033;-83
2023/04/09 00:38:27;;;;;;;11.30;3.47;;;;;;;;;;4972323;28;20407;-83
2023/04/09 00:40:53;;;;;;;5.93;3.03;;;;;;;;;;4983046;28;20042;-83
2023/04/09 00:43:19;;;;;;;12.30;4.72;;;;;;;;;;4966888;28;20121;-83
2023/04/09 00:45:45;;;;;;;9.57;4.13;;;;;;;;;;4966427;28;20027;-82
2023/04/09 00:48:12;;;;;;;10.02;4.32;;;;;;;;;;4974832;28;20185;-83
2023/04/09 00:50:38;;;;;;;9.80;4.88;;;;;;;;;;4985535;28;20640;-83
2023/04/09 00:53:04;;;;;;;8.20;3.58;;;;;;;;;;4962864;28;20090;-82
2023/04/09 00:55:30;;;;;;;8.80;4.43;;;;;;;;;;4988186;28;20487;-83
2023/04/09 00:57:56;;;;;;;10.10;3.75;;;;;;;;;;4982301;28;20026;-83
2023/04/09 01:00:22;;;;;;;6.72;3.50;;;;;;;;;;4970120;28;20509;-83
2023/04/09 01:02:51;;;;;;;13.85;4.32;;;;;;;;;;4971856;28;20026;-83
2023/04/09 01:05:17;;;;;;;9.27;3.10;;;;;;;;;;4959111;28;20811;-83
2023/04/09 01:08:07;;;;;;;12.60;4.53;;;;;;;;;;4974117;28;20030;-83
2023/04/09 01:10:42;;;;;;;6.32;3.20;;;;;;;;;;4970116;28;20084;-82
2023/04/09 01:13:07;;;;;;;7.50;3.58;;;;;;;;;;4985171;28;20035;-82
2023/04/09 01:15:36;;;;;;;12.77;4.18;;;;;;;;;;4966955;28;20037;-82
2023/04/09 01:18:25;;;;;;;6.32;2.88;;;6.20;99.90;;;;;;4968118;28;20038;-83
2023/04/09 01:20:54;;;;;;;8.13;3.50;;;;;;;;;;4971368;28;20343;-83
2023/04/09 01:23:46;;;;;;;16.35;4.05;;;;;;;;;;4988555;28;20038;-82
2023/04/09 01:26:39;;;;;;;8.57;3.25;;;6.30;99.90;;;;;;4973430;28;20030;-82
2023/04/09 01:29:06;;;;;;;13.90;3.85;;;;;;;;;;4970009;28;20091;-82
2023/04/09 01:31:35;;;;;;;7.65;3.53;;;;;;;;;;4973437;28;20517;-83
2023/04/09 01:34:01;;;;;;;10.70;4.45;;;;;;;;;;4970918;28;20030;-82
2023/04/09 01:36:28;;;;;;;6.85;3.40;;;;;;;;;;4963245;28;20034;-82
2023/04/09 01:38:55;;;;;;;7.85;2.95;;;;;;;;;;4961640;28;20027;-82
2023/04/09 01:41:21;;;;;;;7.97;3.35;;;;;;;;;;4989797;28;20456;-82
2023/04/09 01:43:48;;;;;;;6.18;3.00;;;;;;;;;;4976470;28;20080;-82
2023/04/09 01:46:15;;;;;;;9.55;2.80;;;;;;;;;;4955702;28;20048;-82
2023/04/09 01:48:43;;;;;;;9.20;3.53;;;;;;;;;;4969198;28;20034;-82
2023/04/09 01:51:09;;;;;;;7.72;3.47;;;;;;;;;;4962365;28;20381;-82
2023/04/09 01:53:35;;;;;;;9.50;3.72;;;;;;;;;;4986272;28;20407;-82
2023/04/09 01:56:02;;;;;;;6.47;3.78;;;;;;;;;;4967529;28;20049;-82
2023/04/09 01:58:28;;;;;;;9.73;3.78;;;;;;;;;;4968157;28;22082;-82
2023/04/09 02:00:59;;;;;;;10.32;3.58;;;;;;;;;;4968425;28;20076;-82
2023/04/09 02:03:40;;;;;;;8.07;3.22;;;;;;;;;;4981812;28;20018;-82
2023/04/09 02:06:18;;;;;;;10.95;3.95;;;;;;;;;;4959338;28;23541;-82
2023/04/09 02:08:45;;;;;;;9.63;3.75;;;;;;;;;;4968568;28;20034;-82
2023/04/09 02:11:12;;;;;;;8.18;4.22;;;;;;;;;;4961579;28;20418;-82
2023/04/09 02:13:40;;;;;;;11.38;3.40;;;;;;;;;;4960499;28;20038;-82
2023/04/09 02:16:06;;;;;;;8.73;3.13;;;;;;;;;;4960807;28;20113;-82
2023/04/09 02:18:32;;;;;;;9.68;3.65;;;;;;;;;;4966313;28;20045;-82
2023/04/09 02:20:59;;;;;;;6.55;3.15;;;;;;;;;;4964253;28;20034;-82
2023/04/09 02:23:26;;;;;;;5.68;2.47;;;;;;;;;;4964562;28;22331;-82
2023/04/09 02:25:53;;;;;;;6.32;2.53;;;;;;;;;;4981415;28;20485;-82
2023/04/09 02:28:19;;;;;;;15.45;3.72;;;;;;;;;;4950447;28;20601;-82
2023/04/09 02:30:44;;;;;;;5.50;2.88;;;;;;;;;;4963956;28;20033;-82
2023/04/09 02:33:10;;;;;;;8.75;4.22;;;;;;;;;;4980825;28;20038;-82
2023/04/09 02:35:36;;;;;;;8.43;3.58;;;;;;;;;;4981559;28;21149;-82
2023/04/09 02:38:02;;;;;;;7.20;2.85;;;;;;;;;;4981323;28;20034;-82
2023/04/09 02:40:28;;;;;;;7.53;3.63;;;;;;;;;;4984992;28;20061;-82
2023/04/09 02:42:54;;;;;;;9.68;3.80;;;;;;;;;;4983546;28;20486;-83
2023/04/09 02:45:20;;;;;;;9.50;4.15;;;;;;;;;;4961561;28;20720;-83
2023/04/09 02:47:46;;;;;;;12.52;3.90;;;;;;;;;;4981937;28;20042;-83
2023/04/09 02:50:12;;;;;;;6.85;3.55;;;;;;;;;;4965373;28;21310;-83
2023/04/09 02:52:38;;;;;;;9.35;3.83;;;;;;;;;;4966408;28;20045;-84
2023/04/09 02:55:05;;;;;;;9.07;3.78;;;;;;;;;;4968065;28;21268;-83
2023/04/09 02:57:32;;;;;;;14.05;4.38;;;;;;;;;;4962999;28;20393;-84
2023/04/09 02:59:58;;;;;;;7.82;3.95;;;;;;;;;;4971505;28;20048;-84
2023/04/09 03:02:24;;;;;;;7.30;4.03;;;;;;;;;;4961221;28;20824;-83
2023/04/09 03:04:51;;;;;;;9.90;4.50;;;;;;;;;;4981024;28;20033;-84
2023/04/09 03:07:17;;;;;;;8.20;3.63;;;;;;;;;;4982646;28;20068;-84
2023/04/09 03:09:43;;;;;;;12.90;5.43;;;;;;;;;;4966134;28;20543;-83
2023/04/09 03:12:09;;;;;;;11.00;4.95;;;;;;;;;;4965088;28;23399;-84
2023/04/09 03:14:35;;;;;;;10.35;4.72;;;;;;;;;;4960470;28;20035;-84
2023/04/09 03:17:01;;;;;;;10.35;6.15;;;;;;;;;;4976387;28;20034;-83
2023/04/09 03:19:27;;;;;;;10.20;4.85;;;;;;;;;;4966988;28;20073;-83
2023/04/09 03:21:53;;;;;;;10.02;4.50;;;;;;;;;;4963226;28;20187;-84
2023/04/09 03:24:19;;;;;;;10.82;4.18;;;;;;;;;;4983976;28;20033;-83
2023/04/09 03:26:45;;;;;;;10.18;5.07;;;;;;;;;;4964343;28;20085;-84
2023/04/09 03:29:11;;;;;;;12.60;5.00;;;;;;;;;;4959303;28;20034;-84
2023/04/09 03:31:37;;;;;;;8.05;3.60;;;;;;;;;;4979357;28;20387;-82
2023/04/09 03:34:03;;;;;;;9.27;4.90;;;;;;;;;;4978313;28;20030;-82
2023/04/09 03:36:30;;;;;;;9.52;4.07;;;;;;;;;;4980240;28;20026;-82
2023/04/09 03:38:56;;;;;;;12.02;3.25;;;;;;;;;;4969419;28;20037;-83
2023/04/09 03:41:21;;;;;;;11.20;4.28;;;;;;;;;;4968432;28;20395;-83
2023/04/09 03:43:47;;;;;;;11.32;4.07;;;;;;;;;;4967934;28;20034;-84
2023/04/09 03:46:14;;;;;;;12.10;4.45;;;;;;;;;;4999288;28;20029;-83
2023/04/09 03:48:41;;;;;;;11.70;4.93;;;;;;;;;;5006713;28;20526;-84
2023/04/09 03:51:10;;;;;;;10.35;4.13;;;;;;;;;;4993720;28;20034;-83
2023/04/09 03:53:36;;;;;;;11.27;4.90;;;;;;;;;;4967816;28;21784;-83
2023/04/09 03:56:03;;;;;;;7.38;3.78;;;;;;;;;;4967122;28;20081;-83
2023/04/09 03:58:29;;;;;;;14.73;7.32;;;;;;;;;;4970018;28;20034;-83
2023/04/09 04:00:55;;;;;;;13.48;5.97;;;;;;;;;;4967095;28;20030;-83
2023/04/09 04:03:21;;;;;;;14.57;7.20;;;;;;;;;;4969069;28;20125;-83
2023/04/09 04:05:47;;;;;;;10.57;4.95;;;;;;;;;;4968471;28;21250;-83
2023/04/09 04:08:14;;;;;;;8.57;4.38;;;5.40;99.90;;;;;;4967379;28;23357;-83
2023/04/09 04:10:40;;;;;;;13.50;5.45;;;;;;;;;;4967209;28;20034;-84
2023/04/09 04:13:09;;;;;;;11.55;4.60;;;;;;;;;;4985825;28;20025;-82
2023/04/09 04:15:40;;;;;;;8.25;4.85;;;;;;;;;;4985399;28;20030;-83
2023/04/09 04:18:06;;;;;;;12.63;5.03;;;;;;;;;;4985737;28;20041;-83
2023/04/09 04:20:32;;;;;;;11.18;4.57;;;;;;;;;;4967076;28;20438;-84
2023/04/09 04:22:59;;;;;;;11.68;4.90;;;;;;;;;;4971507;28;20977;-83
2023/04/09 04:25:25;;;;;;;10.20;5.13;;;;;;;;;;4968554;28;20022;-83
2023/04/09 04:27:51;;;;;;;12.13;5.15;;;;;;;;;;4971397;28;20035;-83
2023/04/09 04:30:17;;;;;;;11.30;4.97;;;;;;;;;;4985751;28;20380;-83
2023/04/09 04:32:43;;;;;;;9.35;4.68;;;;;;;;;;4993282;28;20117;-83
2023/04/09 04:35:09;;;;;;;9.63;4.97;;;;;;;;;;4971158;28;23330;-83
2023/04/09 04:37:35;;;;;;;8.50;3.95;;;;;;;;;;4973664;28;20508;-83
2023/04/09 04:40:04;;;;;;;8.02;4.07;;;;;;;;;;4964485;28;20034;-83
2023/04/09 04:42:30;;;;;;;9.13;4.18;;;;;;;;;;4989059;28;20435;-83
2023/04/09 04:44:56;;;;;;;11.80;4.10;;;;;;;;;;5000587;28;20037;-83
2023/04/09 04:47:22;;;;;;;9.23;4.75;;;;;;;;;;4991897;28;20031;-83
2023/04/09 04:49:48;;;;;;;9.57;4.93;;;;;;;;;;4968581;28;20019;-83
2023/04/09 04:52:13;;;;;;;10.15;4.30;;;;;;;;;;4978867;28;20054;-83
2023/04/09 04:54:39;;;;;;;12.52;4.35;;;;;;;;;;4973805;28;20070;-83
2023/04/09 04:57:05;;;;;;;12.90;4.68;;;;;;;;;;4986177;28;20108;-83
2023/04/09 04:59:31;;;;;;;10.02;4.10;;;;;;;;;;4967587;28;20036;-84
2023/04/09 05:01:57;;;;;;;8.73;4.22;;;;;;;;;;4968409;28;20391;-84
2023/04/09 05:04:23;;;;;;;9.80;4.70;;;;;;;;;;4987139;28;20030;-84
2023/04/09 05:06:49;;;;;;;10.88;4.40;;;;;;;;;;4977259;28;20456;-83
2023/04/09 05:09:15;;;;;;;11.07;4.97;;;;;;;;;;4987225;28;20035;-84
2023/04/09 05:11:41;;;;;;;18.30;7.10;;;;;;;;;;4970422;28;20041;-83
2023/04/09 05:14:11;;;;;;;17.10;6.13;;;;;;;;;;4971563;28;20539;-83
2023/04/09 05:16:37;;;;;;;11.88;5.40;;;;;;;;;;4979928;28;20065;-83
2023/04/09 05:19:03;;;;;;;10.25;4.30;;;;;;;;;;4966042;28;20030;-83
2023/04/09 05:21:30;;;;;;;10.23;5.10;;;;;;;;;;4996878;28;20022;-83
2023/04/09 05:23:56;;;;;;;11.45;5.95;;;;;;;;;;4977978;28;20026;-83
2023/04/09 05:26:23;;;;;;;11.77;4.75;;;;;;;;;;4983908;28;20437;-84
2023/04/09 05:28:49;;;;;;;9.32;4.55;;;;;;;;;;4958880;28;20046;-84
2023/04/09 05:31:15;;;;;;;12.10;4.93;;;;;;;;;;4963665;28;20035;-84
2023/04/09 05:33:42;;;;;;;10.13;4.68;;;;;;;;;;4961183;28;20533;-84
2023/04/09 05:36:08;;;;;;;12.80;5.38;;;;;;;;;;4976459;28;20542;-84
2023/04/09 05:38:34;;;;;;;8.13;4.03;;;;;;;;;;4983146;28;20057;-83
2023/04/09 05:41:00;;;;;;;16.35;5.80;;;;;;;;;;4969295;28;20042;-84
2023/04/09 05:43:26;;;;;;;8.00;4.07;;;;;;;;;;4986812;28;20034;-84
2023/04/09 05:45:52;;;;;;;11.40;4.45;;;;;;;;;;4987351;28;20076;-84
2023/04/09 05:48:18;;;;;;;11.73;3.92;;;;;;;;;;4983892;28;20031;-85
2023/04/09 05:50:51;;;;;;;13.40;6.10;;;;;;;;;;4971577;28;20050;-84
2023/04/09 05:53:17;;;;;;;12.30;6.32;;;;;;;;;;4985638;28;20022;-84
2023/04/09 05:55:44;;;;;;;21.00;10.27;;;;;;;;;;4974822;28;20049;-84
2023/04/09 05:58:10;;;;;;;22.95;12.25;;;;;;;;;;4988363;28;20030;-84
2023/04/09 06:00:36;;;;;;;20.58;12.50;;;;;;;;;;4969980;28;20027;-84
2023/04/09 06:03:02;;;;;;;13.73;8.10;;;;;;;;;;4987364;28;20038;-84
2023/04/09 06:05:28;;;;;;;14.85;6.78;;;;;;;;;;4974737;28;20035;-83
2023/04/09 06:07:55;;;;;;;12.88;5.53;;;;;;;;;;4982949;28;20031;-84
2023/04/09 06:10:21;;;;;;;21.95;6.28;;;;;;;;;;4987547;28;20034;-84
2023/04/09 06:12:49;;;;;;;15.60;6.43;;;;;;;;;;4974999;28;20034;-84
2023/04/09 06:15:15;;;;;;;12.48;5.70;;;;;;;;;;4984273;28;20029;-83
2023/04/09 06:17:40;;;;;;;9.57;4.93;;;;;;;;;;4981520;28;20030;-83
2023/04/09 06:20:07;;;;;;;11.77;5.43;;;;;;;;;;4985017;28;20045;-84
2023/04/09 06:22:33;;;;;;;12.00;5.90;;;;;;;;;;4985654;28;20430;-84
2023/04/09 06:24:59;;;;;;;14.02;5.45;;;;;;;;;;4986529;28;20130;-84
2023/04/09 06:27:26;;;;;;;11.40;5.40;;;;;;;;;;4992536;28;20038;-84
2023/04/09 06:29:52;;;;;;;12.95;5.80;;;;;;;;;;4968731;28;20080;-83
2023/04/09 06:32:19;;;;;;;15.43;6.63;;;;;;;;;;4966327;28;20514;-83
2023/04/09 06:34:45;;;;;;;12.40;6.00;;;;;;;;;;4968581;28;20034;-84
2023/04/09 06:37:11;;;;;;;12.63;6.25;;;;;;;;;;4968599;28;20037;-84
2023/04/09 06:39:37;;;;;;;14.13;6.57;;;;;;;;;;4979160;28;20517;-84
2023/04/09 06:42:03;;;;;;;10.27;5.07;;;;;;;;;;4981644;28;20031;-83
2023/04/09 06:44:30;;;;;;;14.32;6.03;;;;;;;;;;4985610;28;20549;-83
2023/04/09 06:46:56;;;;;;;13.80;7.22;;;;;;;;;;4974630;28;20835;-83
2023/04/09 06:49:22;;;;;;;14.43;7.05;;;;;;;;;;4989817;28;20164;-83
2023/04/09 06:51:47;;;;;;;13.15;6.93;;;;;;;;;;4977856;28;20037;-83
2023/04/09 06:54:13;;;;;;;12.98;7.43;;;;;;;;;;4983423;28;20022;-83
2023/04/09 06:56:39;;;;;;;11.18;5.13;;;;;;;;;;4987464;28;20034;-83
2023/04/09 06:59:05;;;;;;;15.32;7.20;;;;;;;;;;4983938;28;20074;-83
2023/04/09 07:01:34;;;;;;;14.98;7.10;;;;;;;;;;4973998;28;20170;-84
2023/04/09 07:04:00;;;;;;;16.20;7.63;;;;;;;;;;4982088;28;20026;-84
2023/04/09 07:06:26;;;;;;;13.18;6.80;;;;;;;;;;4988353;28;20034;-85
2023/04/09 07:08:52;;;;;;;14.57;6.65;;;;;;;;;;4991194;28;20041;-85
2023/04/09 07:11:18;;;;;;;15.55;7.13;;;;;;;;;;5003418;28;20042;-84
2023/04/09 07:13:44;;;;;;;14.07;7.30;;;;;;;;;;4993684;28;20502;-84
2023/04/09 07:16:11;;;;;;;12.15;6.85;;;;;;;;;;4976416;28;20045;-83
2023/04/09 07:18:37;;;;;;;16.92;7.68;;;;;;;;;;4982972;28;20015;-83
2023/04/09 07:21:03;;;;;;;12.05;6.60;;;;;;;;;;4974349;28;20026;-82
2023/04/09 07:23:30;;;;;;;13.77;6.93;;;;;;;;;;4995378;28;20394;-83
2023/04/09 07:25:56;;;;;;;12.13;6.43;;;;;;;;;;4991142;28;20554;-83
2023/04/09 07:28:21;;;;;;;13.75;6.85;;;;;;;;;;4974509;28;20130;-83
2023/04/09 07:30:47;;;;;;;13.23;6.35;;;;;;;;;;4976167;28;20507;-83
2023/04/09 07:33:14;;;;;;;11.65;6.22;;;;;;;;;;4996679;28;20206;-83
2023/04/09 07:35:40;;;;;;;14.45;6.70;;;;;;;;;;4988266;28;20022;-83
2023/04/09 07:38:07;;;;;;;14.48;6.45;;;;;;;;;;4978999;28;20026;-83
2023/04/09 07:40:35;;;;;;;14.93;6.80;;;;;;;;;;4986451;28;20039;-83
2023/04/09 07:43:01;;;;;;;14.18;6.30;;;;;;;;;;5003478;28;20487;-82
2023/04/09 07:45:27;;;;;;;12.35;6.25;;;;;;;;;;5000734;28;20126;-82
2023/04/09 07:47:53;;;;;;;13.32;6.78;;;;;;;;;;4998065;28;20561;-83
2023/04/09 07:50:19;;;;;;;15.13;7.03;;;;;;;;;;4981419;28;20068;-83
2023/04/09 07:52:46;;;;;;;17.00;7.65;;;;;;;;;;4996386;28;20402;-83
2023/04/09 07:55:12;;;;;;;11.90;6.07;;;;;;;;;;4979555;28;20440;-81
2023/04/09 07:57:38;;;;;;;13.02;6.30;;;;;;;;;;4983410;28;20027;-83
2023/04/09 08:00:05;;;;;;;11.38;6.03;;;;;;;;;;4976267;28;20375;-83
2023/04/09 08:02:32;;;;;;;14.65;6.80;;;9.50;99.90;;;;;;4984528;28;20034;-82
2023/04/09 08:04:58;;;;;;;11.85;6.45;;;;;;;;;;4988635;28;20117;-83
2023/04/09 08:07:24;;;;;;;10.65;5.70;;;;;;;;;;4992518;28;20121;-83
2023/04/09 08:09:50;;;;;;;13.52;6.35;;;;;;;;;;4998323;28;20523;-84
2023/04/09 08:12:16;;;;;;;13.75;6.50;;;;;;;;;;4987117;28;20029;-83
2023/04/09 08:14:42;;;;;;;12.35;6.35;;;;;;;;;;4982688;28;20038;-83
2023/04/09 08:17:08;;;;;;;16.23;5.88;;;;;;;;;;4986136;28;20034;-83
2023/04/09 08:19:34;;;;;;;10.32;5.50;;;;;;;;;;4976432;28;20023;-83
2023/04/09 08:22:00;;;;;;;10.23;5.38;;;;;;;;;;4978679;28;20031;-83
2023/04/09 08:24:29;;;;;;;11.20;5.60;;;;;;;;;;5000888;28;20070;-83
2023/04/09 08:26:55;;;;;;;15.15;5.57;;;;;;;;;;4991569;28;20084;-83
2023/04/09 08:29:21;;;;;;;12.88;5.70;;;;;;;;;;4979555;28;20722;-83
2023/04/09 08:31:47;;;;;;;10.02;5.43;;;;;;;;;;4977463;28;20042;-83
2023/04/09 08:34:16;;;;;;;10.70;5.43;;;;;;;;;;4995469;28;20490;-83
2023/04/09 08:36:45;;;;;;;8.38;4.10;;;;;;;;;;4976781;28;20027;-82
2023/04/09 08:39:11;;;;;;;10.18;4.72;;;;;;;;;;4988055;28;20455;-84
2023/04/09 08:41:39;;;;;;;10.77;5.70;;;;;;;;;;4981399;28;20109;-83
2023/04/09 08:44:06;;;;;;;9.30;5.25;;;;;;;;;;4988787;28;20133;-84
2023/04/09 08:46:32;;;;;;;9.50;5.35;;;;;;;;;;4995847;28;20642;-83
2023/04/09 08:48:57;;;;;;;12.73;5.07;;;;;;;;;;5000972;28;20030;-84
2023/04/09 08:51:24;;;;;;;11.85;5.65;;;;;;;;;;4979482;28;20426;-83
2023/04/09 08:54:00;;;;;;;11.15;5.47;;;;;;;;;;4985563;28;20096;-83
2023/04/09 08:56:29;;;;;;;7.85;4.05;;;;;;;;;;4978240;28;20026;-82
2023/04/09 08:59:17;;;;;;;8.55;4.30;;;;;;;;;;5004982;28;20022;-83
2023/04/09 09:02:06;;;;;;;7.85;3.42;;;;;;;;;;4981920;28;20494;-84
2023/04/09 09:08:20;;;;;;;7.63;4.10;;;;;;;;;;4987662;28;20041;-83
2023/04/09 09:18:09;;;;;;;;;;;;;;;;;;;;;
2023/04/09 09:20:36;;;;;;;8.05;3.35;;;;;;;;;;4980292;28;20039;-83
2023/04/09 09:23:11;;;;;;;6.03;2.50;;;;;;;;;;4977975;28;20085;-84
2023/04/09 09:26:00;;;;;;;6.20;3.55;;;;;;;;;;4978479;28;20031;-83
2023/04/09 09:28:40;;;;;;;6.55;3.00;;;;;;;;;;4996082;28;20046;-83
2023/04/09 09:31:19;;;;;;;6.88;4.05;;;;;;;;;;4976833;28;20038;-83
2023/04/09 09:33:51;;;;;;;5.35;2.88;;;;;;;;;;4996789;28;20057;-84
2023/04/09 09:36:39;;;;;;;6.85;3.60;;;15.20;75.60;;;;;;4978634;28;20030;-85
2023/04/09 09:39:09;;;;;;;7.35;3.88;;;;;;;;;;4971317;28;20034;-82
2023/04/09 09:41:35;;;;;;;6.38;3.88;;;;;;;;;;4984684;28;20425;-83
2023/04/09 09:44:02;;;;;;;6.85;3.53;;;;;;;;;;4980591;28;20038;-83
2023/04/09 09:46:30;;;;;;;10.18;4.43;;;;;;;;;;4998529;28;20307;-82
2023/04/09 09:48:56;;;;;;;7.25;3.47;;;;;;;;;;4998717;28;20041;-82
2023/04/09 09:51:26;;;;;;;7.57;3.28;;;;;;;;;;4975662;28;20557;-81
2023/04/09 09:53:54;;;;;;;6.70;3.40;;;;;;;;;;5002982;28;20022;-83
2023/04/09 09:56:23;;;;;;;7.93;3.58;;;14.40;81.60;;;;;;4982615;28;20030;-82
2023/04/09 09:59:12;;;;;;;7.05;3.55;;;;;;;;;;4984560;28;20022;-83
2023/04/09 10:01:39;;;;;;;6.60;3.75;;;14.80;78.60;;;;;;4966953;28;22283;-82
2023/04/09 10:04:07;;;;;;;9.55;3.67;;;;;;;;;;4982464;28;20058;-82
2023/04/09 10:06:34;;;;;;;6.75;3.63;;;14.60;77.40;;;;;;4994386;28;20100;-82
2023/04/09 10:09:03;;;;;;;7.53;3.40;;;;;;;;;;4996154;28;20033;-82
2023/04/09 10:11:31;;;;;;;7.97;3.83;;;;;;;;;;4995023;28;20034;-82
2023/04/09 10:14:00;;;;;;;8.38;3.78;;;14.30;92.20;;;;;;4994263;28;20026;-82
2023/04/09 10:16:26;;;;;;;7.38;4.00;;;14.10;80.90;;;;;;4974224;28;20096;-81
2023/04/09 10:18:53;;;;;;;6.93;3.72;;;;;;;;;;4974414;28;20570;-81
2023/04/09 10:21:31;;;;;;;5.95;3.20;;;;;;;;;;4967842;28;20434;-81
2023/04/09 10:23:57;;;;;;;7.18;3.20;;;;;;;;;;4973636;28;20036;-81
2023/04/09 10:26:26;;;;;;;4.72;2.70;;;;;;;;;;4987012;28;20479;-81
2023/04/09 10:29:05;;;;;;;8.00;2.58;;;;;;;;;;4975772;28;20037;-80
2023/04/09 10:31:51;;;;;;;7.28;2.97;;;14.20;74.60;;;;;;4992095;28;20586;-81
2023/04/09 10:34:18;;;;;;;6.95;3.35;;;;;;;;;;4980039;28;20031;-82
2023/04/09 10:36:50;;;;;;;5.82;2.60;;;14.10;75.50;;;;;;5001130;28;20026;-82
2023/04/09 10:39:16;;;;;;;5.03;2.80;;;;;;;;;;4979586;28;20058;-82
2023/04/09 10:41:43;;;;;;;6.43;2.78;;;;;;;;;;4999587;28;20113;-82
2023/04/09 10:44:23;;;;;;;5.20;2.42;;;15.90;74.80;;;;;;4983163;28;20568;-81
2023/04/09 10:46:49;;;;;;;5.88;3.08;;;;;;;;;;4980261;28;20088;-82
2023/04/09 10:49:15;;;;;;;6.43;3.10;;;;;;;;;;4985980;28;20034;-82
2023/04/09 10:51:47;;;;;;;6.45;2.95;;;15.10;71.20;;;;;;4989263;28;20023;-84
2023/04/09 10:54:38;;;;;;;4.82;2.53;;;;;;;;;;4983262;28;20081;-82
2023/04/09 10:57:10;;;;;;;5.30;2.72;;;;;;;;;;4997996;28;20336;-82
2023/04/09 10:59:40;;;;;;;6.28;2.75;;;15.10;70.40;;;;;;4969503;28;20037;-82
2023/04/09 11:02:26;;;;;;;5.25;2.95;;;15.40;67.60;;;;;;4987458;28;22765;-83
2023/04/09 11:05:10;;;;;;;5.50;2.47;;;15.40;71.90;;;;;;4996563;28;20074;-82
2023/04/09 11:07:40;;;;;;;6.45;3.30;;;;;;;;;;4998528;28;20065;-83
2023/04/09 11:10:06;;;;;;;5.40;2.63;;;;;;;;;;4998860;28;20086;-83
2023/04/09 11:12:33;;;;;;;5.72;3.58;;;;;;;;;;4973513;28;20510;-83
2023/04/09 11:14:59;;;;;;;8.05;3.00;;;;;;;;;;4987549;28;20038;-83
2023/04/09 11:17:25;;;;;;;5.72;3.10;;;;;;;;;;5008033;28;20077;-83
2023/04/09 11:19:51;;;;;;;4.53;2.65;;;;;;;;;;4984042;28;20038;-83
2023/04/09 11:22:17;;;;;;;5.43;2.58;;;;;;;;;;4981595;28;20505;-83
2023/04/09 11:24:43;;;;;;;6.55;3.17;;;;;;;;;;4985967;28;20034;-82
2023/04/09 11:27:09;;;;;;;5.70;3.13;;;;;;;;;;4989049;28;20030;-82
2023/04/09 11:29:36;;;;;;;8.20;3.83;;;;;;;;;;4983998;28;20026;-83
2023/04/09 11:32:04;;;;;;;4.35;2.67;;;;;;;;;;4986924;28;20478;-81
2023/04/09 11:34:31;;;;;;;4.80;2.45;;;16.00;90.60;;;;;;4979381;28;20045;-84
2023/04/09 11:36:58;;;;;;;6.70;2.83;;;;;;;;;;4981073;28;20501;-83
2023/04/09 11:39:25;;;;;;;5.53;2.55;;;;;;;;;;4989795;28;20031;-82
2023/04/09 11:41:51;;;;;;;6.95;3.15;;;;;;;;;;4996524;28;20400;-82
2023/04/09 11:44:17;;;;;;;6.28;3.25;;;;;;;;;;4989940;28;20744;-82
2023/04/09 11:46:44;;;;;;;6.20;3.28;;;;;;;;;;4984620;28;20030;-83
2023/04/09 11:49:10;;;;;;;5.50;2.75;;;;;;;;;;4987804;28;20088;-83
2023/04/09 11:51:36;;;;;;;5.72;2.58;;;;;;;;;;5000794;28;20026;-82
2023/04/09 11:54:02;;;;;;;5.07;2.92;;;;;;;;;;4988700;28;20026;-83
2023/04/09 11:56:33;;;;;;;6.10;3.35;;;;;;;;;;4991243;28;20034;-83
2023/04/09 11:58:59;;;;;;;12.20;3.00;;;;;;;;;;4997260;28;20058;-82
2023/04/09 12:01:31;;;;;;;5.93;2.97;;;15.40;70.70;;;;;;4988346;28;20073;-82
2023/04/09 12:03:57;;;;;;;8.52;3.78;;;;;;;;;;4982035;28;20053;-82
2023/04/09 12:06:25;;;;;;;5.70;3.05;;;;;;;;;;4974092;28;20038;-82
2023/04/09 12:08:58;;;;;;;4.95;2.35;;;;;;;;;;4984914;28;20456;-82
2023/04/09 12:11:30;;;;;;;6.70;3.28;;;;;;;;;;5000144;28;20121;-82
2023/04/09 12:14:02;;;;;;;4.75;2.83;;;;;;;;;;5005672;28;20056;-82
2023/04/09 12:16:32;;;;;;;5.70;2.92;;;;;;;;;;4982844;28;20057;-82
2023/04/09 12:19:02;;;;;;;6.20;2.90;;;;;;;;;;4978500;28;20050;-82
2023/04/09 12:21:46;;;;;;;7.43;3.20;;;16.60;70.50;;;;;;4959736;28;20247;-82
2023/04/09 12:24:12;;;;;;;8.30;4.00;;;;;;;;;;4985128;28;20407;-83
2023/04/09 12:26:38;;;;;;;6.68;2.63;;;;;;;;;;4981173;28;20026;-83
2023/04/09 12:29:04;;;;;;;5.65;3.05;;;;;;;;;;4964404;28;20026;-84
2023/04/09 12:31:30;;;;;;;6.50;3.28;;;;;;;;;;4986321;28;20027;-84
2023/04/09 12:33:56;;;;;;;6.72;2.90;;;;;;;;;;4965750;28;20038;-83
2023/04/09 12:36:22;;;;;;;5.88;3.10;;;;;;;;;;4971382;28;20180;-83
2023/04/09 12:38:48;;;;;;;5.40;2.47;;;;;;;;;;4985101;28;20460;-83
2023/04/09 12:41:15;;;;;;;4.57;2.78;;;16.30;68.00;;;;;;4991021;28;20053;-83
2023/04/09 12:43:42;;;;;;;4.78;2.95;;;16.10;70.90;;;;;;4993188;28;20037;-83
2023/04/09 12:46:08;;;;;;;6.57;3.20;;;;;;;;;;4993188;28;20394;-83
2023/04/09 12:48:34;;;;;;;6.55;3.30;;;;;;;;;;4984896;28;20027;-83
2023/04/09 12:51:00;;;;;;;5.75;2.92;;;16.50;75.00;;;;;;4990209;28;20491;-83
2023/04/09 12:53:26;;;;;;;5.30;2.83;;;;;;;;;;5000163;28;20029;-83
2023/04/09 12:55:52;;;;;;;8.75;3.33;;;;;;;;;;4974482;28;20034;-82
2023/04/09 12:58:18;;;;;;;4.28;2.60;;;16.20;86.30;;;;;;4990037;28;20029;-82
2023/04/09 13:00:44;;;;;;;6.72;3.05;;;;;;;;;;4995401;28;20093;-82
2023/04/09 13:03:10;;;;;;;4.07;2.40;;;;;;;;;;4990755;28;20041;-83
2023/04/09 13:05:36;;;;;;;4.75;2.65;;;;;;;;;;5008078;28;20030;-82
2023/04/09 13:08:02;;;;;;;8.80;3.20;;;;;;;;;;4985815;28;20085;-83
2023/04/09 13:10:30;;;;;;;6.95;3.13;;;16.50;66.60;;;;;;4989652;28;20032;-83
2023/04/09 13:12:56;;;;;;;5.80;3.05;;;;;;;;;;4988736;28;20501;-83
2023/04/09 13:15:22;;;;;;;6.45;3.22;;;16.40;86.00;;;;;;5006025;28;20030;-82
2023/04/09 13:17:48;;;;;;;4.65;2.72;;;;;;;;;;4992223;28;20468;-82
2023/04/09 13:20:14;;;;;;;5.18;2.25;;;;;;;;;;4994075;28;20049;-82
2023/04/09 13:22:40;;;;;;;8.15;3.60;;;;;;;;;;4996650;28;20489;-83
2023/04/09 13:25:06;;;;;;;6.03;2.83;;;;;;;;;;5010045;28;20042;-83
2023/04/09 13:27:31;;;;;;;5.93;2.80;;;14.80;90.60;;;;;;4996542;28;20459;-84
2023/04/09 13:29:57;;;;;;;5.65;2.88;;;;;;;;;;4991520;28;20036;-84
2023/04/09 13:32:23;;;;;;;5.57;2.88;;;;;;;;;;5004661;28;20030;-84
2023/04/09 13:34:50;;;;;;;7.18;3.45;;;;;;;;;;5011282;28;20030;-84
2023/04/09 13:37:16;;;;;;;4.25;2.47;;;;;;;;;;5016676;28;20044;-83
2023/04/09 13:39:42;;;;;;;5.05;2.85;;;;;;;;;;5023842;28;20065;-83
2023/04/09 13:42:08;;;;;;;7.03;3.60;;;;;;;;;;5029240;28;20034;-82
2023/04/09 13:44:34;;;;;;;7.07;3.13;;;;;;;;;;5018378;28;20010;-83
2023/04/09 13:47:00;;;;;;;7.75;2.95;;;;;;;;;;5030167;28;20052;-82
2023/04/09 13:49:26;;;;;;;4.65;2.85;;;;;;;;;;5014815;28;20041;-82
2023/04/09 13:51:52;;;;;;;4.13;2.45;;;;;;;;;;5016896;28;20014;-82
2023/04/09 13:54:19;;;;;;;7.13;2.67;;;;;;;;;;5015149;28;20034;-83
2023/04/09 13:56:45;;;;;;;5.00;2.60;;;;;;;;;;5003790;28;20113;-82
2023/04/09 13:59:11;;;;;;;4.03;2.03;;;;;;;;;;5006796;28;20028;-82
2023/04/09 14:01:37;;;;;;;5.90;2.85;;;;;;;;;;5005009;28;20030;-82
2023/04/09 14:04:03;;;;;;;5.30;2.45;;;;;;;;;;5003084;28;20030;-83
2023/04/09 14:06:30;;;;;;;5.72;3.35;;;;;;;;;;4994486;28;20035;-82
2023/04/09 14:08:56;;;;;;;7.43;3.25;;;;;;;;;;4989926;28;20514;-82
2023/04/09 14:11:22;;;;;;;8.90;3.67;;;;;;;;;;5006953;28;20030;-82
2023/04/09 14:13:48;;;;;;;6.07;3.00;;;;;;;;;;4995228;28;20661;-83
2023/04/09 14:16:14;;;;;;;4.72;2.50;;;;;;;;;;5005738;28;20018;-83
2023/04/09 14:18:40;;;;;;;6.25;2.58;;;;;;;;;;4991010;28;20052;-83
2023/04/09 14:21:06;;;;;;;7.63;3.13;;;;;;;;;;5005282;28;20041;-83
2023/04/09 14:23:33;;;;;;;8.13;3.22;;;14.80;71.60;;;;;;4992192;28;20209;-82
2023/04/09 14:25:59;;;;;;;7.85;3.70;;;;;;;;;;4983151;28;20031;-82
2023/04/09 14:28:25;;;;;;;5.07;2.50;;;;;;;;;;4985470;28;20097;-82
2023/04/09 14:30:51;;;;;;;4.82;2.45;;;;;;;;;;4983758;28;20675;-82
2023/04/09 14:33:16;;;;;;;7.45;2.95;;;15.90;79.50;;;;;;4990913;28;20030;-82
2023/04/09 14:35:42;;;;;;;6.60;3.42;;;;;;;;;;4992021;28;20037;-82
2023/04/09 14:38:08;;;;;;;7.70;2.75;;;;;;;;;;4994657;28;20034;-82
2023/04/09 14:40:35;;;;;;;4.78;2.65;;;14.60;73.80;;;;;;5010116;28;20034;-83
2023/04/09 14:43:01;;;;;;;6.05;3.60;;;15.60;90.00;;;;;;4989048;28;20031;-82